LIED/DCI METAR and TAF weather

Enter ICAO airport designator
Station Type Date Time Source
LIED METAR 2021/09/16 19:55 UTC NOAA

LIED 161955Z 07004KT 9999 SCT060 27/25 Q1014 RMK BKN BKN200 VIS MIN 9999 WIND THR35 18001KT WIND THR17 10001KT BLU


Station Type Date Time Source
LIED Decoded METAR 2021/09/16 19:55 UTC NOAA

Decimomannu, Italy (LIED) 39-21N 008-58E 28M
Sep 16, 2021 - 03:55 PM EDT / 2021.09.16 1955 UTC
Wind: from the ENE (070 degrees) at 5 MPH (4 KT):0
Visibility: greater than 7 mile(s):0
Sky conditions: partly cloudy
Temperature: 80 F (27 C)
Dew Point: 77 F (25 C)
Relative Humidity: 88%
Pressure (altimeter): 29.94 in. Hg (1014 hPa)
ob: LIED 161955Z 07004KT 9999 SCT060 27/25 Q1014 RMK BKN BKN200 VIS MIN 9999 WIND THR35 18001KT WIND THR17 10001KT BLU
cycle: 20

Station Type Date Time Source
LIED TAF 2021/01/17 03:30 UTC NOAA

TAF TAF LIED 170500Z 1703/1715 03003KT 9999 FEW020 SCT040
TEMPO 1706/1710 RA SCT020 BKN060
BECMG 1708/1710 33018KT
TEMPO 1710/1715 33025G35KT
TEMPO 1713/1715 RA

Example: see airport list